Jacksonville, FL

8:24 PM EDT on August 03, 2015 (GMT -0400)
San Mateo | | Change Station
CLOSE
Current Station
Personal Weather Station
Location: Jacksonville, FL
Elevation: 49 ft
Nearby Weather Stations

Elev 49 ft 30.44 °N, 81.64 °W | Updated 14 minutes ago

Thunderstorm
Thunderstorm
79.0 °F
Feels Like 84 °F
N
5.1
Wind Variable Wind from South

Today
High -- | Low -- °F
--% Chance of Precip.
Yesterday
High -- | Low -- °F
Precip. -- in
6:46 AM 8:19 PM
Waning Gibbous, 83% visible
Pressure 29.86 in
Visibility 10.0 miles
Clouds Few 600 ft
Scattered Clouds 2000 ft
Mostly Cloudy 4400 ft
Mostly Cloudy 13000 ft
Heat Index 84 °F
Dew Point 79 °F
Humidity 99%
Rainfall 0.24 in
Snow Depth Not available.
UV 0 out of 12
Pollen 2.50 out of 12
Air Quality Not available.
Flu Activity Not available.
METAR KJAX 032356Z 18006KT 10SM TS FEW006 SCT020CB BKN044 BKN130 27/26 A2986 RMK AO2 TSB17 SLP112 OCNL LTGIC VC S-SW TS VC S-SW MOV E 60008 T02670256 10289 20261 53004

More Conditions Fewer Conditions

Pressure 29.86 in
Visibility 10.0 miles
Clouds Few 600 ft
Scattered Clouds 2000 ft
Mostly Cloudy 4400 ft
Mostly Cloudy 13000 ft
Heat Index 84 °F
Dew Point 79 °F
Humidity 99%
Rainfall 0.24 in
Snow Depth Not available.
UV 0 out of 12
Pollen 2.50 out of 12
Air Quality Not available.
Flu Activity Not available.
METAR KJAX 032356Z 18006KT 10SM TS FEW006 SCT020CB BKN044 BKN130 27/26 A2986 RMK AO2 TSB17 SLP112 OCNL LTGIC VC S-SW TS VC S-SW MOV E 60008 T02670256 10289 20261 53004

More Conditions Fewer Conditions

10-Day Weather Forecast

×

Almanac

Astronomy

Aug. 03, 2015 Rise Set
Actual Time
Civil Twilight
Nautical Twilight
Astronomical Twilight
Moon
Length of Visible Light
Length of Day
Tomorrow will be .
, % of the Moon is Illuminated

Today's Extremes

State Highs State Lows

Community

WunderPhotos

Upload Photos

1,843,793 photos uploaded!

WunderBlogs® & News

Nearby

Air Quality

  Air Quality AQ Index Pollutant
Not available.

Snow Depth

Station Depth Elevation

Earthquake Activity

City Distance Mag. Time & Date
Minimum magnitude displayed is 2.5.

Coastal Water Temperatures

Place Temperature

Stations

Nearby Weather Stations

Station Location Temp. Windchill Dew Point Humidity Wind Precip. Elev Updated Type